Time;durP1;ratioP1;P1;durP2;ratioP2;P2;SDS_P1;SDS_P2;PMS_P1;PMS_P2;Temp;Humidity;BMP_temperature;BMP_pressure;BME280_temperature;BME280_humidity;BME280_pressure;Samples;Min_cycle;Max_cycle;Signal;HPM_P1;HPM_P2
2021/09/07 00:02:04;;;;;;;0.00;0.00;;;;;;;13.90;95.21;102590.53;10537306;28;20023;-60
2021/09/07 00:07:05;;;;;;;0.10;0.10;;;;;;;13.91;95.60;102590.41;10537466;28;20482;-59
2021/09/07 00:12:05;;;;;;;0.10;0.10;;;;;;;13.93;95.57;102588.44;10536618;28;20038;-60
2021/09/07 00:17:06;;;;;;;0.10;0.10;;;;;;;13.95;95.57;102577.56;10537257;28;20019;-59
2021/09/07 00:22:07;;;;;;;0.10;0.10;;;;;;;13.94;95.70;102578.56;10536217;28;20036;-60
2021/09/07 00:27:07;;;;;;;0.10;0.10;;;;;;;13.91;95.75;102570.81;10536053;28;20024;-60
2021/09/07 00:32:08;;;;;;;0.10;0.10;;;;;;;13.93;95.58;102576.84;10536260;28;20100;-59
2021/09/07 00:37:08;;;;;;;0.10;0.10;;;;;;;13.93;96.00;102583.06;10536048;28;20386;-60
2021/09/07 00:42:08;;;;;;;0.10;0.10;;;;;;;13.94;95.64;102575.88;10535887;28;20463;-60
2021/09/07 00:47:09;;;;;;;0.10;0.10;;;;;;;13.94;95.96;102571.38;10535573;28;20375;-59
2021/09/07 00:52:10;;;;;;;0.10;0.10;;;;;;;13.91;95.45;102558.25;10536097;28;20046;-60
2021/09/07 00:57:11;;;;;;;0.00;0.00;;;;;;;13.88;95.36;102557.69;10535330;28;20020;-58
2021/09/07 01:02:13;;;;;;;0.10;0.10;;;;;;;13.86;95.23;102559.66;10535228;28;20390;-59
2021/09/07 01:07:14;;;;;;;0.10;0.10;;;;;;;13.78;95.13;102561.16;10535606;28;20020;-60
2021/09/07 01:12:15;;;;;;;0.00;0.00;;;;;;;13.72;95.26;102560.88;10535050;28;20107;-60
2021/09/07 01:17:18;;;;;;;0.10;0.10;;;;;;;13.67;95.37;102560.44;10534892;28;20095;-59
2021/09/07 01:22:20;;;;;;;0.10;0.10;;;;;;;13.62;95.36;102568.06;10535107;28;20467;-59
2021/09/07 01:27:20;;;;;;;0.10;0.10;;;;;;;13.58;96.02;102572.81;10535331;28;20020;-60
2021/09/07 01:32:21;;;;;;;0.10;0.10;;;;;;;13.46;94.52;102560.53;10537251;28;20398;-60
2021/09/07 01:37:22;;;;;;;0.15;0.15;;;;;;;13.36;95.55;102573.88;10525990;28;20024;-60
2021/09/07 01:42:24;;;;;;;0.00;0.00;;;;;;;13.31;95.89;102557.38;10543733;28;20028;-60
2021/09/07 01:47:24;;;;;;;0.10;0.10;;;;;;;13.20;95.31;102568.97;10543226;28;20024;-59
2021/09/07 01:52:25;;;;;;;0.10;0.10;;;;;;;13.09;95.26;102572.63;10542585;28;20024;-60
2021/09/07 01:57:25;;;;;;;0.10;0.10;;;;;;;13.04;96.25;102566.81;10542174;28;20020;-59
2021/09/07 02:02:25;;;;;;;0.10;0.10;;;;;;;12.96;95.05;102565.78;10542594;28;20262;-60
2021/09/07 02:07:25;;;;;;;0.10;0.10;;;;;;;12.56;93.12;102575.34;10541914;28;20012;-61
2021/09/07 02:12:26;;;;;;;0.10;0.10;;;;;;;12.39;94.96;102575.91;10541729;28;20506;-60
2021/09/07 02:17:26;;;;;;;0.10;0.10;;;;;;;12.36;95.20;102568.16;10506726;28;20024;-60
2021/09/07 02:22:27;;;;;;;0.10;0.10;;;;;;;12.27;94.73;102559.09;10523095;28;20262;-58
2021/09/07 02:27:27;;;;;;;0.10;0.10;;;;;;;12.25;95.40;102571.75;10540931;28;20028;-60
2021/09/07 02:32:27;;;;;;;0.10;0.10;;;;;;;12.21;94.90;102565.78;10541073;28;20039;-57
2021/09/07 02:37:28;;;;;;;0.10;0.10;;;;;;;12.13;95.38;102562.94;10541147;28;20046;-60
2021/09/07 02:42:28;;;;;;;0.07;0.07;;;;;;;12.06;95.01;102552.88;10540481;28;20447;-60
2021/09/07 02:47:28;;;;;;;0.10;0.10;;;;;;;11.90;94.50;102562.16;10540196;28;20024;-60
2021/09/07 02:52:29;;;;;;;0.10;0.10;;;;;;;11.73;94.43;102560.81;10521838;28;20055;-60
2021/09/07 02:57:29;;;;;;;0.10;0.10;;;;;;;11.50;94.59;102546.66;10540456;28;20377;-59
2021/09/07 03:02:29;;;;;;;0.10;0.10;;;;;;;11.31;95.12;102547.28;10539745;28;20535;-59
2021/09/07 03:07:30;;;;;;;0.10;0.10;;;;;;;11.21;95.00;102553.47;10539929;28;20500;-60
2021/09/07 03:12:30;;;;;;;0.10;0.10;;;;;;;11.02;94.33;102556.72;10539314;28;20028;-60
2021/09/07 03:17:30;;;;;;;0.10;0.10;;;;;;;10.87;94.69;102562.28;10539032;28;20027;-60
2021/09/07 03:22:31;;;;;;;0.10;0.10;;;;;;;10.76;95.30;102564.94;10539497;28;20530;-60
2021/09/07 03:27:32;;;;;;;0.10;0.10;;;;;;;10.74;96.61;102569.53;10538579;28;20463;-60
2021/09/07 03:32:32;;;;;;;0.10;0.10;;;;;;;10.74;96.43;102571.34;10538540;28;20035;-60
2021/09/07 03:37:33;;;;;;;0.08;0.08;;;;;;;10.71;96.21;102572.44;10520101;28;20251;-59
2021/09/07 03:42:34;;;;;;;0.10;0.10;;;;;;;10.69;97.02;102563.69;10537746;28;20035;-58
2021/09/07 03:47:35;;;;;;;0.10;0.10;;;;;;;10.68;97.28;102567.34;10537551;28;20289;-60
2021/09/07 03:52:35;;;;;;;0.10;0.10;;;;;;;10.62;96.44;102563.31;10537268;28;20110;-60
2021/09/07 03:57:36;;;;;;;0.00;0.00;;;;;;;10.53;96.37;102552.50;10518678;28;20276;-60
2021/09/07 04:02:36;;;;;;;0.10;0.10;;;;;;;10.49;97.23;102570.53;10518507;28;20020;-60
2021/09/07 04:07:37;;;;;;;0.10;0.10;;;;;;;10.47;97.56;102575.16;10536335;28;20023;-60
2021/09/07 04:12:38;;;;;;;0.10;0.10;;;;;;;10.31;96.27;102575.44;10537210;28;20032;-60
2021/09/07 04:17:38;;;;;;;0.03;0.03;;;;;;;10.22;96.66;102594.75;10536443;28;20395;-60
2021/09/07 04:22:38;;;;;;;0.00;0.00;;;;;;;10.13;96.36;102593.59;10536329;28;20031;-60
2021/09/07 04:27:38;;;;;;;0.10;0.10;;;;;;;10.08;96.88;102586.91;10535988;28;20016;-61
2021/09/07 04:32:39;;;;;;;0.10;0.10;;;;;;;10.04;96.53;102591.63;10535978;28;20050;-60
2021/09/07 04:37:39;;;;;;;0.13;0.13;;;;;;;9.94;96.31;102586.09;10535570;28;20012;-60
2021/09/07 04:42:40;;;;;;;0.10;0.10;;;;;;;9.85;96.16;102592.09;10535523;28;20624;-61
2021/09/07 04:47:40;;;;;;;0.10;0.10;;;;;;;9.81;96.60;102593.31;10549028;22;20563;-61
2021/09/07 04:52:41;;;;;;;0.10;0.10;;;;;;;9.76;96.10;102592.78;10535082;28;20398;-60
2021/09/07 04:57:41;;;;;;;0.10;0.10;;;;;;;9.70;95.97;102601.19;10534904;28;20452;-61
2021/09/07 05:02:41;;;;;;;0.10;0.10;;;;;;;9.80;97.69;102604.03;10534725;28;20429;-61
2021/09/07 05:07:42;;;;;;;0.10;0.10;;;;;;;9.95;97.99;102593.16;10534057;28;20042;-60
2021/09/07 05:12:42;;;;;;;0.10;0.10;;;;;;;10.19;98.73;102592.31;10534611;28;20393;-61
2021/09/07 05:17:44;;;;;;;0.10;0.10;;;;;;;10.42;98.96;102604.78;10534309;28;20118;-61
2021/09/07 05:22:45;;;;;;;0.10;0.10;;;;;;;10.68;99.47;102612.66;10534191;28;20020;-61
2021/09/07 05:27:45;;;;;;;0.00;0.00;;;;;;;10.85;99.05;102606.88;10534718;28;20027;-61
2021/09/07 05:32:46;;;;;;;0.10;0.10;;;;;;;10.97;97.90;102610.41;10534151;28;20325;-61
2021/09/07 05:37:46;;;;;;;0.10;0.10;;;;;;;11.11;97.66;102622.66;10533996;28;20053;-60
2021/09/07 05:42:46;;;;;;;0.10;0.10;;;;;;;11.26;97.45;102613.50;10534553;28;20270;-61
2021/09/07 05:47:47;;;;;;;0.10;0.10;;;;;;;11.55;96.83;102615.69;10533528;28;20115;-61
2021/09/07 05:52:47;;;;;;;0.10;0.10;;;;;;;11.72;96.53;102608.97;10515532;28;20028;-61
2021/09/07 05:57:48;;;;;;;0.10;0.10;;;;;;;11.89;96.25;102607.66;10515376;28;20084;-62
2021/09/07 06:02:52;;;;;;;0.10;0.10;;;;;;;12.12;96.81;102609.28;10533964;28;20028;-62
2021/09/07 06:07:52;;;;;;;0.00;0.00;;;;;;;12.57;95.72;102610.97;10533855;28;20031;-61
2021/09/07 06:12:52;;;;;;;0.10;0.10;;;;;;;13.36;94.31;102617.56;10533808;28;20494;-61
2021/09/07 06:17:53;;;;;;;0.00;0.00;;;;;;;13.95;91.82;102612.41;10534219;28;20028;-62
2021/09/07 06:22:53;;;;;;;0.10;0.10;;;;;;;14.33;89.21;102622.31;10541368;28;20085;-62
2021/09/07 06:27:53;;;;;;;0.00;0.00;;;;;;;14.22;89.26;102612.59;10542215;28;20398;-62
2021/09/07 06:32:53;;;;;;;0.10;0.10;;;;;;;14.82;89.16;102612.44;10540789;28;20093;-61
2021/09/07 06:37:54;;;;;;;0.10;0.10;;;;;;;15.76;85.66;102623.16;10541726;28;20020;-62
2021/09/07 06:42:55;;;;;;;0.10;0.10;;;;;;;16.16;83.71;102629.16;10540368;28;20024;-60
2021/09/07 06:47:56;;;;;;;0.10;0.10;;;;;;;17.34;81.39;102619.88;10540911;28;20110;-62
2021/09/07 06:52:56;;;;;;;0.00;0.00;;;;;;;18.80;76.57;102617.75;10540607;28;20138;-62
2021/09/07 06:57:57;;;;;;;0.00;0.00;;;;;;;20.13;74.01;102618.81;10540489;28;20142;-62
2021/09/07 07:02:57;;;;;;;0.00;0.00;;;;;;;21.23;71.19;102629.22;10539748;28;20060;-62
2021/09/07 07:07:57;;;;;;;0.00;0.00;;;;;;;22.03;67.91;102631.13;10539253;28;20069;-62
2021/09/07 07:12:58;;;;;;;0.10;0.10;;;;;;;22.26;64.71;102628.28;10539813;28;20760;-62
2021/09/07 07:17:58;;;;;;;0.10;0.10;;;;;;;22.45;63.57;102624.06;10540575;28;20024;-63
2021/09/07 07:22:58;;;;;;;0.10;0.10;;;;;;;23.03;62.79;102627.50;10539578;28;20497;-62
2021/09/07 07:27:59;;;;;;;0.10;0.10;;;;;;;23.20;60.98;102622.59;10521309;28;20390;-63
2021/09/07 07:32:59;;;;;;;0.10;0.10;;;;;;;23.20;60.39;102633.47;10538398;28;20306;-63
2021/09/07 07:37:59;;;;;;;0.10;0.10;;;;;;;23.68;61.19;102630.81;10539693;28;20355;-63
2021/09/07 07:43:00;;;;;;;0.10;0.10;;;;;;;23.98;57.68;102629.69;10540287;28;20028;-63
2021/09/07 07:48:00;;;;;;;0.10;0.10;;;;;;;24.33;58.54;102627.66;10538792;28;20035;-63
2021/09/07 07:53:02;;;;;;;0.10;0.10;;;;;;;25.06;56.07;102635.84;10538919;28;20031;-63
2021/09/07 07:58:03;;;;;;;;;;;;;;;24.97;52.66;102623.50;10538468;28;20030;-63
2021/09/07 08:03:03;;;;;;;0.10;0.10;;;;;;;24.73;55.04;102638.63;10537568;28;19991;-63
2021/09/07 08:08:03;;;;;;;0.10;0.10;;;;;;;25.00;54.39;102640.28;10537186;28;20081;-63
2021/09/07 08:13:04;;;;;;;0.10;0.10;;;;;;;25.18;54.57;102647.81;10537064;28;20378;-61
2021/09/07 08:18:04;;;;;;;0.10;0.10;;;;;;;25.28;55.34;102641.94;10536377;28;20024;-61
2021/09/07 08:23:05;;;;;;;0.10;0.10;;;;;;;25.54;53.51;102641.03;10536382;28;20053;-62
2021/09/07 08:28:05;;;;;;;0.10;0.10;;;;;;;24.80;52.31;102643.00;10535808;28;20024;-62
2021/09/07 08:33:14;;;;;;;0.10;0.10;;;;;;;23.27;57.44;102645.25;10535991;28;20542;-62
2021/09/07 08:38:14;;;;;;;0.10;0.10;;;;;;;22.13;59.09;102657.94;10536079;28;20397;-63
2021/09/07 08:43:18;;;;;;;0.10;0.10;;;;;;;21.20;62.55;102654.81;10535447;28;20035;-62
2021/09/07 08:48:21;;;;;;;0.10;0.10;;;;;;;20.68;65.03;102655.66;10535104;28;20036;-63
2021/09/07 08:53:23;;;;;;;0.10;0.10;;;;;;;20.91;66.09;102662.91;10517021;28;20089;-63
2021/09/07 08:58:23;;;;;;;0.00;0.00;;;;;;;21.84;65.08;102653.44;10535207;28;20111;-63
2021/09/07 09:03:23;;;;;;;0.10;0.10;;;;;;;21.99;63.47;102656.97;10536024;28;20028;-60
2021/09/07 09:08:24;;;;;;;0.00;0.00;;;;;;;22.02;63.54;102667.44;10535698;28;20028;-62
2021/09/07 09:13:25;;;;;;;0.10;0.10;;;;;;;21.75;60.94;102660.00;10535061;28;20130;-63
2021/09/07 09:18:37;;;;;;;0.00;0.00;;;;;;;21.89;63.47;102656.41;10535005;28;20094;-63
2021/09/07 09:23:37;;;;;;;0.00;0.00;;;;;;;22.83;61.45;102656.38;10516790;28;20474;-63
2021/09/07 09:28:38;;;;;;;0.00;0.00;;;;;;;23.59;60.54;102648.34;10534442;28;20032;-62
2021/09/07 09:33:38;;;;;;;0.10;0.10;;;;;;;24.09;57.70;102645.44;10534600;28;20597;-62
2021/09/07 09:38:43;;;;;;;0.00;0.00;;;;;;;24.03;57.04;102647.09;10535366;28;20145;-63
2021/09/07 09:43:43;;;;;;;0.10;0.10;;;;;;;24.08;56.12;102644.56;10534126;28;20493;-63
2021/09/07 09:48:44;;;;;;;0.10;0.10;;;;;;;24.26;56.90;102641.28;10534292;28;20036;-63
2021/09/07 09:53:47;;;;;;;0.00;0.00;;;;;;;24.32;55.16;102637.72;10536424;28;20043;-62
2021/09/07 09:58:48;;;;;;;0.10;0.10;;;;;;;24.22;57.02;102647.31;10524069;28;20419;-63
2021/09/07 10:03:49;;;;;;;0.10;0.10;;;;;;;24.06;58.77;102640.38;10541813;28;20518;-63
2021/09/07 10:08:49;;;;;;;0.10;0.10;;;;;;;24.09;57.27;102651.69;10542082;28;20030;-61
2021/09/07 10:13:54;;;;;;;0.00;0.00;;;;;;;23.80;58.07;102652.03;10541444;28;20032;-62
2021/09/07 10:18:58;;;;;;;0.10;0.10;;;;;;;23.30;59.47;102648.56;10541669;28;20052;-63
2021/09/07 10:24:03;;;;;;;0.00;0.00;;;;;;;23.20;59.99;102638.06;10540909;28;20020;-63
2021/09/07 10:29:08;;;;;;;0.10;0.10;;;;;;;22.91;59.39;102631.78;10541142;28;20031;-63
2021/09/07 10:34:11;;;;;;;0.00;0.00;;;;;;;22.81;60.52;102620.41;10541067;28;20489;-62
2021/09/07 10:39:25;;;;;;;0.03;0.03;;;;;;;22.63;60.83;102620.91;10540429;28;20023;-61
2021/09/07 10:44:36;;;;;;;0.10;0.10;;;;;;;22.74;58.00;102609.47;10539986;28;20448;-62
2021/09/07 10:49:37;;;;;;;0.00;0.00;;;;;;;22.76;62.97;102610.13;10547402;22;20452;-61
2021/09/07 10:54:46;;;;;;;0.00;0.00;;;;;;;22.58;60.73;102612.50;10526696;28;20277;-61
2021/09/07 10:59:51;;;;;;;0.00;0.00;;;;;;;22.71;62.01;102609.88;10513715;28;20518;-61
2021/09/07 11:04:51;;;;;;;0.00;0.00;;;;;;;22.85;60.50;102607.28;10514734;28;20016;-61
2021/09/07 11:09:52;;;;;;;0.10;0.10;;;;;;;23.01;61.64;102605.13;10494916;28;20029;-63
2021/09/07 11:15:07;;;;;;;0.00;0.00;;;;;;;22.63;60.97;102606.47;10495431;28;20025;-62
2021/09/07 11:20:08;;;;;;;0.00;0.00;;;;;;;22.85;62.29;102601.84;10515104;28;20050;-62
2021/09/07 11:25:10;;;;;;;0.03;0.03;;;;;;;23.08;60.45;102607.06;10499015;28;20016;-62
2021/09/07 11:30:30;;;;;;;0.00;0.00;;;;;;;23.13;59.97;102604.59;10521045;28;20588;-63
2021/09/07 11:35:34;;;;;;;0.10;0.10;;;;;;;23.09;56.18;102603.28;10515266;28;20077;-61
2021/09/07 11:40:40;;;;;;;0.00;0.00;;;;;;;23.04;60.98;102595.75;10492457;28;20430;-61
2021/09/07 11:45:41;;;;;;;0.10;0.10;;;;;;;23.20;60.24;102587.25;10493536;28;20025;-63
2021/09/07 11:50:41;;;;;;;0.00;0.00;;;;;;;23.19;57.13;102593.75;10507342;28;20203;-62
2021/09/07 11:55:47;;;;;;;0.10;0.10;;;;;;;22.89;58.32;102592.25;10511603;28;20028;-60
2021/09/07 12:01:26;;;;;;;0.00;0.00;;;;;;;22.76;58.00;102590.28;10517054;28;20127;-63
2021/09/07 12:06:36;;;;;;;0.00;0.00;;;;;;;22.88;62.72;102580.53;10491042;28;20426;-63
2021/09/07 12:11:36;;;;;;;0.00;0.00;;;;;;;23.31;60.95;102585.03;10492923;28;20016;-62
2021/09/07 12:16:49;;;;;;;0.00;0.00;;;;;;;23.11;58.51;102580.31;10491378;28;20387;-62
2021/09/07 12:22:18;;;;;;;0.00;0.00;;;;;;;22.55;58.49;102570.28;10522356;28;20120;-61
2021/09/07 12:27:24;;;;;;;0.10;0.10;;;;;;;22.35;61.11;102569.28;10533599;28;20031;-62
2021/09/07 12:32:24;;;;;;;0.10;0.10;;;;;;;22.36;57.47;102566.34;10532046;28;20047;-61
2021/09/07 12:37:25;;;;;;;0.10;0.10;;;;;;;22.22;58.63;102574.56;10491997;28;20164;-62
2021/09/07 12:42:25;;;;;;;0.10;0.10;;;;;;;22.38;63.32;102579.75;10516517;28;20025;-63
2021/09/07 12:47:25;;;;;;;0.10;0.10;;;;;;;22.35;59.63;102574.69;10509238;28;20025;-62
2021/09/07 12:52:26;;;;;;;0.10;0.10;;;;;;;22.38;59.01;102568.88;10529832;28;20032;-63
2021/09/07 12:57:28;;;;;;;0.00;0.00;;;;;;;22.54;58.33;102567.75;10524412;28;20490;-63
2021/09/07 13:02:28;;;;;;;0.00;0.00;;;;;;;22.76;57.05;102565.84;10513359;28;20222;-63
2021/09/07 13:07:28;;;;;;;0.00;0.00;;;;;;;22.89;56.97;102560.47;10513171;28;20020;-61
2021/09/07 13:12:29;;;;;;;0.10;0.10;;;;;;;22.92;54.48;102553.81;10532382;28;20560;-61
2021/09/07 13:17:29;;;;;;;0.00;0.00;;;;;;;22.76;54.03;102560.41;10522777;28;20379;-63
2021/09/07 13:22:29;;;;;;;0.00;0.00;;;;;;;22.57;56.56;102554.63;10527637;28;20026;-61
2021/09/07 13:27:30;;;;;;;0.10;0.10;;;;;;;22.44;56.19;102549.09;10529567;28;20012;-60
2021/09/07 13:32:30;;;;;;;0.10;0.10;;;;;;;22.41;53.73;102546.75;10528155;28;20032;-62
2021/09/07 13:37:30;;;;;;;0.00;0.00;;;;;;;22.29;53.42;102538.31;10530428;28;20513;-63
2021/09/07 13:42:31;;;;;;;0.00;0.00;;;;;;;22.25;55.05;102528.03;10530892;28;20028;-62
2021/09/07 13:47:31;;;;;;;0.00;0.00;;;;;;;22.30;56.08;102531.00;10526297;28;20074;-61
2021/09/07 13:52:31;;;;;;;0.10;0.10;;;;;;;22.20;57.29;102534.06;10495691;28;20035;-62
2021/09/07 13:57:32;;;;;;;0.00;0.00;;;;;;;22.15;55.18;102531.88;10526332;28;20440;-60
2021/09/07 14:02:32;;;;;;;0.00;0.00;;;;;;;21.99;52.83;102526.75;10526268;28;20146;-61
2021/09/07 14:07:32;;;;;;;0.10;0.10;;;;;;;21.92;54.81;102520.41;10526711;28;20069;-62
2021/09/07 14:12:33;;;;;;;0.10;0.10;;;;;;;21.89;56.37;102527.03;10530667;28;20028;-61
2021/09/07 14:17:33;;;;;;;0.00;0.00;;;;;;;21.85;53.60;102520.34;10529012;28;20020;-62
2021/09/07 14:22:34;;;;;;;0.10;0.10;;;;;;;21.80;57.16;102517.34;10530115;28;20016;-63
2021/09/07 14:27:34;;;;;;;0.00;0.00;;;;;;;21.75;59.94;102514.38;10528161;28;20149;-61
2021/09/07 14:32:35;;;;;;;0.00;0.00;;;;;;;21.77;58.12;102516.91;10526503;28;20032;-63
2021/09/07 14:37:36;;;;;;;0.10;0.10;;;;;;;21.77;57.61;102511.50;10490709;28;20043;-63
2021/09/07 14:42:36;;;;;;;0.10;0.10;;;;;;;21.76;59.33;102513.38;10503647;28;20056;-61
2021/09/07 14:47:36;;;;;;;0.00;0.00;;;;;;;21.72;58.18;102512.06;10513158;28;20031;-63
2021/09/07 14:52:38;;;;;;;0.10;0.10;;;;;;;21.75;59.19;102508.94;10525185;28;20266;-62
2021/09/07 14:57:40;;;;;;;0.10;0.10;;;;;;;21.77;58.96;102506.06;10535064;28;20062;-62
2021/09/07 15:02:41;;;;;;;0.10;0.10;;;;;;;21.72;58.65;102500.38;10494081;28;20447;-62
2021/09/07 15:07:41;;;;;;;0.10;0.10;;;;;;;21.71;57.35;102499.53;10524326;28;20030;-62
2021/09/07 15:12:41;;;;;;;0.10;0.10;;;;;;;21.67;57.23;102501.81;10493593;28;20031;-62
2021/09/07 15:17:42;;;;;;;0.00;0.00;;;;;;;21.66;59.45;102496.56;10494579;28;20032;-63
2021/09/07 15:22:42;;;;;;;0.10;0.10;;;;;;;21.63;58.88;102486.09;10533240;28;20069;-62
2021/09/07 15:27:42;;;;;;;0.20;0.20;;;;;;;21.64;58.26;102490.47;10494464;28;20395;-60
2021/09/07 15:32:43;;;;;;;0.10;0.10;;;;;;;21.63;59.81;102477.97;10493576;28;20489;-62
2021/09/07 15:37:44;;;;;;;0.00;0.00;;;;;;;21.56;59.49;102477.91;10492156;28;20020;-62
2021/09/07 15:42:45;;;;;;;0.00;0.00;;;;;;;21.57;58.71;102473.31;10495362;28;20030;-61
2021/09/07 15:47:45;;;;;;;0.00;0.00;;;;;;;21.56;58.71;102471.63;10495738;28;20025;-63
2021/09/07 15:52:49;;;;;;;0.00;0.00;;;;;;;21.51;60.06;102471.38;10492450;28;20020;-61
2021/09/07 15:57:49;;;;;;;0.10;0.10;;;;;;;21.46;59.84;102469.22;10494172;28;20020;-62
2021/09/07 16:02:51;;;;;;;0.00;0.00;;;;;;;21.44;59.80;102463.16;10494443;28;20021;-61
2021/09/07 16:07:52;;;;;;;0.00;0.00;;;;;;;21.43;61.56;102466.88;10494675;28;20024;-63
2021/09/07 16:12:52;;;;;;;0.10;0.10;;;;;;;21.37;61.24;102457.66;10494292;28;20043;-63
2021/09/07 16:17:52;;;;;;;0.00;0.00;;;;;;;21.29;58.91;102455.03;10494310;28;20438;-62
2021/09/07 16:22:53;;;;;;;0.00;0.00;;;;;;;21.29;60.43;102454.19;10492194;28;20044;-64
2021/09/07 16:27:58;;;;;;;0.10;0.10;;;;;;;21.24;60.78;102447.47;10494094;28;20020;-63
2021/09/07 16:33:00;;;;;;;0.10;0.10;;;;;;;21.15;61.26;102448.63;10493665;28;20036;-62
2021/09/07 16:38:00;;;;;;;0.00;0.00;;;;;;;21.06;63.89;102443.47;10493495;28;20111;-64
2021/09/07 16:43:01;;;;;;;0.10;0.10;;;;;;;20.93;62.30;102431.47;10492973;28;20107;-63
2021/09/07 16:48:01;;;;;;;0.00;0.00;;;;;;;20.83;62.80;102419.22;10507860;22;20048;-61
2021/09/07 16:53:22;;;;;;;0.00;0.00;;;;;;;20.76;61.17;102409.16;10521522;28;20036;-62
2021/09/07 16:58:23;;;;;;;0.00;0.00;;;;;;;20.65;62.15;102411.50;10492842;28;20254;-63
2021/09/07 17:03:23;;;;;;;0.10;0.10;;;;;;;20.50;62.13;102406.06;10492239;28;20025;-62
2021/09/07 17:08:27;;;;;;;0.00;0.00;;;;;;;20.34;62.84;102405.22;10492579;28;20045;-62
2021/09/07 17:13:27;;;;;;;0.00;0.00;;;;;;;20.21;65.27;102406.88;10474428;28;20055;-62
2021/09/07 17:18:27;;;;;;;0.00;0.00;;;;;;;20.00;65.63;102400.31;10492201;28;20058;-61
2021/09/07 17:23:28;;;;;;;0.00;0.00;;;;;;;19.80;67.85;102393.75;10491418;28;20024;-62
2021/09/07 17:28:28;;;;;;;0.10;0.10;;;;;;;19.58;68.53;102384.63;10474375;28;20386;-61
2021/09/07 17:38:36;;;;;;;0.05;0.05;;;;;;;19.00;71.99;102392.25;10492638;28;20027;-62
2021/09/07 17:43:37;;;;;;;0.00;0.00;;;;;;;18.71;74.16;102387.47;10491844;28;20475;-62
2021/09/07 17:48:37;;;;;;;0.00;0.00;;;;;;;18.49;75.97;102389.88;10491359;28;20029;-62
2021/09/07 17:53:37;;;;;;;0.10;0.10;;;;;;;18.35;75.72;102393.28;10523660;28;20114;-62
2021/09/07 17:58:39;;;;;;;0.10;0.10;;;;;;;18.12;76.56;102389.63;10533367;28;20127;-61
2021/09/07 18:03:39;;;;;;;0.00;0.00;;;;;;;17.82;76.90;102395.56;10533179;28;20755;-62
2021/09/07 18:08:40;;;;;;;0.00;0.00;;;;;;;17.61;78.28;102396.03;10533581;28;20031;-62
2021/09/07 18:13:40;;;;;;;0.00;0.00;;;;;;;17.31;79.11;102408.28;10515503;28;20024;-62
2021/09/07 18:18:40;;;;;;;0.00;0.00;;;;;;;17.11;80.43;102410.41;10532157;28;20021;-61
2021/09/07 18:23:41;;;;;;;0.10;0.10;;;;;;;16.93;80.73;102415.91;10498154;28;20028;-61
2021/09/07 18:28:41;;;;;;;0.00;0.00;;;;;;;16.81;82.01;102424.41;10480790;28;20502;-62
2021/09/07 18:33:41;;;;;;;0.10;0.10;;;;;;;16.72;82.68;102426.19;10498217;28;20258;-62
2021/09/07 18:38:42;;;;;;;0.10;0.10;;;;;;;16.57;82.77;102425.97;10498470;28;20086;-61
2021/09/07 18:43:42;;;;;;;0.00;0.00;;;;;;;16.38;82.48;102439.66;10497979;28;20128;-62
2021/09/07 18:48:42;;;;;;;0.00;0.00;;;;;;;16.24;83.00;102430.31;10497010;28;20538;-62
2021/09/07 18:53:46;;;;;;;0.10;0.10;;;;;;;16.14;83.68;102430.38;10479464;28;20498;-62
2021/09/07 18:58:46;;;;;;;0.10;0.10;;;;;;;16.00;84.02;102436.34;10496182;28;20319;-62
2021/09/07 19:03:46;;;;;;;0.10;0.10;;;;;;;15.74;84.49;102442.50;10495789;28;20039;-62
2021/09/07 19:08:47;;;;;;;0.10;0.10;;;;;;;15.62;85.77;102446.38;10496208;28;20025;-61
2021/09/07 19:13:47;;;;;;;0.03;0.03;;;;;;;15.59;86.44;102444.84;10495186;28;20032;-62
2021/09/07 19:18:47;;;;;;;0.10;0.10;;;;;;;15.56;85.65;102452.34;10494648;28;20494;-62
2021/09/07 19:23:48;;;;;;;0.10;0.10;;;;;;;15.17;85.48;102445.38;10487136;28;20507;-61
2021/09/07 19:28:48;;;;;;;0.00;0.00;;;;;;;14.96;87.31;102452.00;10452491;28;20041;-61
2021/09/07 19:33:49;;;;;;;0.10;0.10;;;;;;;14.81;88.99;102448.97;10453016;28;20016;-61
2021/09/07 19:38:50;;;;;;;0.10;0.10;;;;;;;14.74;88.75;102464.78;10453912;28;20024;-60
2021/09/07 19:43:50;;;;;;;0.10;0.10;;;;;;;14.73;88.97;102457.75;10456078;28;20369;-61
2021/09/07 19:48:51;;;;;;;0.10;0.10;;;;;;;14.73;89.04;102463.09;10466084;28;20024;-61
2021/09/07 19:53:51;;;;;;;0.10;0.10;;;;;;;14.71;89.29;102449.81;10494166;28;20111;-61
2021/09/07 19:58:51;;;;;;;0.10;0.10;;;;;;;14.70;89.04;102455.34;10457717;28;20021;-61
2021/09/07 20:03:52;;;;;;;0.10;0.10;;;;;;;14.68;88.90;102447.44;10451728;28;20025;-60
2021/09/07 20:08:52;;;;;;;0.10;0.10;;;;;;;14.64;88.85;102442.53;10451929;28;20021;-61
2021/09/07 20:13:53;;;;;;;0.00;0.00;;;;;;;14.55;88.38;102433.53;10483378;28;20024;-60
2021/09/07 20:18:53;;;;;;;0.10;0.10;;;;;;;14.49;88.88;102442.97;10493133;28;20121;-61
2021/09/07 20:23:53;;;;;;;0.10;0.10;;;;;;;14.43;89.30;102440.88;10463835;28;20025;-61
2021/09/07 20:28:54;;;;;;;0.10;0.10;;;;;;;14.32;89.04;102445.56;10492110;28;20094;-62
2021/09/07 20:33:54;;;;;;;0.10;0.10;;;;;;;14.19;89.89;102448.53;10491263;28;20436;-60
2021/09/07 20:38:54;;;;;;;0.10;0.10;;;;;;;14.08;90.13;102435.28;10491522;28;20565;-61
2021/09/07 20:43:55;;;;;;;0.10;0.10;;;;;;;14.01;91.05;102435.00;10491200;28;20372;-62
2021/09/07 20:48:55;;;;;;;0.10;0.10;;;;;;;13.94;90.66;102439.25;10490436;28;20505;-62
2021/09/07 20:53:55;;;;;;;0.10;0.10;;;;;;;13.87;89.69;102443.47;10490337;28;20420;-62
2021/09/07 20:58:55;;;;;;;0.10;0.10;;;;;;;13.75;89.14;102440.94;10486045;28;20025;-62
2021/09/07 21:03:56;;;;;;;0.10;0.10;;;;;;;13.71;90.57;102438.69;10479473;28;20025;-62
2021/09/07 21:08:56;;;;;;;0.10;0.10;;;;;;;13.65;90.17;102431.22;10449474;28;20024;-62
2021/09/07 21:13:56;;;;;;;0.10;0.10;;;;;;;13.64;90.83;102426.84;10449252;28;20037;-62
2021/09/07 21:18:57;;;;;;;0.10;0.10;;;;;;;13.61;91.14;102427.97;10486379;28;20024;-62
2021/09/07 21:23:57;;;;;;;0.10;0.10;;;;;;;13.58;91.59;102428.25;10490090;28;20025;-62
2021/09/07 21:28:57;;;;;;;0.10;0.10;;;;;;;13.52;90.57;102424.28;10490345;28;20097;-62
2021/09/07 21:33:58;;;;;;;0.10;0.10;;;;;;;13.45;90.93;102422.34;10489843;28;20028;-62
2021/09/07 21:39:03;;;;;;;0.10;0.10;;;;;;;13.39;90.80;102422.88;10479637;28;20016;-62
2021/09/07 21:44:03;;;;;;;0.10;0.10;;;;;;;13.25;91.08;102418.75;10490809;28;20455;-61
2021/09/07 21:49:05;;;;;;;0.10;0.10;;;;;;;13.17;90.82;102416.75;10490407;28;20061;-61
2021/09/07 21:54:06;;;;;;;0.10;0.10;;;;;;;13.11;91.32;102415.47;10496161;28;20085;-62
2021/09/07 21:59:06;;;;;;;0.10;0.10;;;;;;;12.98;90.36;102422.91;10498644;28;20441;-62
2021/09/07 22:04:07;;;;;;;0.10;0.10;;;;;;;12.87;92.01;102415.81;10498107;28;20032;-62
2021/09/07 22:09:07;;;;;;;0.10;0.10;;;;;;;12.83;92.20;102413.56;10497817;28;20534;-61
2021/09/07 22:14:08;;;;;;;0.10;0.10;;;;;;;12.70;92.41;102405.75;10496996;28;20028;-61
2021/09/07 22:19:08;;;;;;;0.10;0.10;;;;;;;12.57;91.58;102407.81;10485936;28;20008;-62
2021/09/07 22:24:09;;;;;;;0.10;0.10;;;;;;;12.43;92.59;102415.19;10464941;28;20331;-62
2021/09/07 22:29:09;;;;;;;0.10;0.10;;;;;;;12.42;94.48;102418.88;10455844;28;20625;-61
2021/09/07 22:34:09;;;;;;;0.10;0.10;;;;;;;12.46;95.25;102417.59;10455920;28;20044;-62
2021/09/07 22:39:10;;;;;;;0.00;0.00;;;;;;;12.48;94.89;102406.81;10455970;28;20464;-61
2021/09/07 22:44:10;;;;;;;0.00;0.00;;;;;;;12.52;95.08;102413.56;10454793;28;20027;-62
2021/09/07 22:49:10;;;;;;;0.10;0.10;;;;;;;12.57;94.42;102407.81;10483357;22;20040;-60
2021/09/07 22:54:11;;;;;;;0.10;0.10;;;;;;;12.55;94.44;102413.28;10520914;28;20059;-60
2021/09/07 22:59:11;;;;;;;0.10;0.10;;;;;;;12.53;93.43;102406.38;10501831;28;20413;-60
2021/09/07 23:04:11;;;;;;;0.00;0.00;;;;;;;12.53;93.38;102409.06;10477648;28;20067;-60
2021/09/07 23:09:12;;;;;;;0.10;0.10;;;;;;;12.45;92.97;102405.25;10495676;28;20277;-58